createdAt,value
2022-10-11T00:02:44.240Z,14.90
2022-10-11T00:05:31.295Z,14.85
2022-10-11T00:08:18.095Z,14.80
2022-10-11T00:11:07.795Z,14.84
2022-10-11T00:13:54.959Z,14.90
2022-10-11T00:16:44.313Z,14.68
2022-10-11T00:19:33.850Z,14.85
2022-10-11T00:22:20.794Z,14.82
2022-10-11T00:25:09.682Z,14.89
2022-10-11T00:27:56.479Z,14.90
2022-10-11T00:30:45.641Z,14.87
2022-10-11T00:33:32.397Z,14.88
2022-10-11T00:36:19.190Z,14.84
2022-10-11T00:39:06.056Z,14.84
2022-10-11T00:41:52.819Z,14.83
2022-10-11T00:44:40.863Z,14.81
2022-10-11T00:47:27.667Z,14.65
2022-10-11T00:50:14.534Z,14.65
2022-10-11T00:53:09.880Z,14.70
2022-10-11T00:56:08.792Z,14.66
2022-10-11T00:58:57.646Z,14.48
2022-10-11T01:01:46.747Z,14.49
2022-10-11T01:04:34.917Z,14.37
2022-10-11T01:07:21.733Z,14.26
2022-10-11T01:10:08.972Z,14.35
2022-10-11T01:13:19.348Z,14.38
2022-10-11T01:16:20.943Z,14.29
2022-10-11T01:19:30.876Z,14.33
2022-10-11T01:22:20.608Z,14.17
2022-10-11T01:25:14.928Z,14.28
2022-10-11T01:28:17.715Z,14.29
2022-10-11T01:31:21.341Z,14.19
2022-10-11T01:34:08.035Z,14.25
2022-10-11T01:37:24.075Z,14.15
2022-10-11T01:40:20.085Z,14.00
2022-10-11T01:43:06.995Z,13.95
2022-10-11T01:45:56.391Z,14.00
2022-10-11T01:48:51.834Z,14.13
2022-10-11T01:51:47.653Z,14.15
2022-10-11T01:55:09.477Z,14.20
2022-10-11T01:58:35.537Z,14.17
2022-10-11T02:01:36.443Z,14.15
2022-10-11T02:04:45.309Z,14.22
2022-10-11T02:08:06.785Z,14.32
2022-10-11T02:10:58.692Z,14.17
2022-10-11T02:14:10.727Z,14.23
2022-10-11T02:17:07.328Z,14.22
2022-10-11T02:19:57.517Z,14.29
2022-10-11T02:22:47.341Z,14.35
2022-10-11T02:25:36.193Z,14.40
2022-10-11T02:28:26.619Z,14.40
2022-10-11T02:31:15.251Z,14.42
2022-10-11T02:33:50.239Z,14.40
2022-10-11T02:36:31.806Z,14.42
2022-10-11T02:39:04.528Z,14.22
2022-10-11T02:41:40.121Z,14.29
2022-10-11T02:44:11.097Z,14.05
2022-10-11T02:46:38.866Z,14.17
2022-10-11T02:49:07.505Z,14.13
2022-10-11T02:51:36.437Z,14.17
2022-10-11T02:54:02.978Z,14.15
2022-10-11T02:56:29.421Z,14.26
2022-10-11T02:58:55.909Z,14.30
2022-10-11T03:01:22.560Z,14.34
2022-10-11T03:03:51.361Z,14.35
2022-10-11T03:06:17.831Z,14.30
2022-10-11T03:08:44.309Z,14.24
2022-10-11T03:11:12.844Z,14.23
2022-10-11T03:13:39.338Z,14.06
2022-10-11T03:16:05.829Z,14.10
2022-10-11T03:18:35.153Z,14.10
2022-10-11T03:21:01.612Z,14.22
2022-10-11T03:23:28.285Z,14.18
2022-10-11T03:25:56.941Z,14.23
2022-10-11T03:28:23.420Z,14.33
2022-10-11T03:30:51.821Z,14.38
2022-10-11T03:33:20.881Z,14.41
2022-10-11T03:35:48.217Z,14.36
2022-10-11T03:38:20.606Z,14.44
2022-10-11T03:40:47.557Z,14.47
2022-10-11T03:43:14.467Z,14.46
2022-10-11T03:45:45.600Z,14.46
2022-10-11T03:48:12.467Z,14.47
2022-10-11T03:50:41.718Z,14.51
2022-10-11T03:53:08.576Z,14.51
2022-10-11T03:55:37.350Z,14.50
2022-10-11T03:58:03.805Z,14.45
2022-10-11T04:00:30.253Z,14.51
2022-10-11T04:02:56.750Z,14.47
2022-10-11T04:05:23.297Z,14.45
2022-10-11T04:07:55.257Z,14.47
2022-10-11T04:10:22.188Z,14.34
2022-10-11T04:12:48.774Z,14.42
2022-10-11T04:15:15.264Z,14.33
2022-10-11T04:17:43.923Z,14.25
2022-10-11T04:20:10.900Z,14.26
2022-10-11T04:22:39.557Z,14.32
2022-10-11T04:25:07.320Z,14.33
2022-10-11T04:27:35.884Z,14.32
2022-10-11T04:30:02.863Z,14.25
2022-10-11T04:32:33.748Z,14.33
2022-10-11T04:35:04.510Z,14.37
2022-10-11T04:37:33.603Z,14.41
2022-10-11T04:40:05.023Z,14.42
2022-10-11T04:42:34.073Z,14.45
2022-10-11T04:45:00.511Z,14.46
2022-10-11T04:47:29.075Z,14.43
2022-10-11T04:49:59.780Z,14.40
2022-10-11T04:52:28.609Z,14.40
2022-10-11T04:54:55.077Z,14.35
2022-10-11T04:57:21.500Z,14.37
2022-10-11T04:59:50.530Z,14.32
2022-10-11T05:02:17.516Z,14.31
2022-10-11T05:04:44.046Z,14.34
2022-10-11T05:07:10.519Z,14.17
2022-10-11T05:09:36.987Z,14.17
2022-10-11T05:12:03.718Z,14.19
2022-10-11T05:14:30.183Z,14.09
2022-10-11T05:16:59.056Z,14.01
2022-10-11T05:19:25.557Z,14.09
2022-10-11T05:21:52.026Z,14.16
2022-10-11T05:24:21.260Z,14.18
2022-10-11T05:26:47.800Z,14.04
2022-10-11T05:29:17.304Z,13.98
2022-10-11T05:31:46.144Z,13.95
2022-10-11T05:34:12.694Z,14.04
2022-10-11T05:36:41.543Z,14.05
2022-10-11T05:39:08.042Z,13.95
2022-10-11T05:41:36.983Z,13.83
2022-10-11T05:44:08.144Z,13.86
2022-10-11T05:46:37.000Z,13.92
2022-10-11T05:49:03.467Z,14.02
2022-10-11T05:51:29.901Z,13.97
2022-10-11T05:53:56.509Z,13.93
2022-10-11T05:56:25.316Z,14.02
2022-10-11T05:58:52.536Z,14.05
2022-10-11T06:01:26.883Z,13.96
2022-10-11T06:03:54.063Z,14.12
2022-10-11T06:06:20.747Z,14.09
2022-10-11T06:08:48.462Z,14.10
2022-10-11T06:11:26.265Z,14.14
2022-10-11T06:13:54.664Z,14.17
2022-10-11T06:16:21.357Z,14.21
2022-10-11T06:18:47.849Z,14.28
2022-10-11T06:21:15.426Z,14.31
2022-10-11T06:23:42.097Z,14.32
2022-10-11T06:26:10.985Z,14.36
2022-10-11T06:28:37.652Z,14.38
2022-10-11T06:31:06.125Z,14.25
2022-10-11T06:33:33.037Z,14.38
2022-10-11T06:36:06.944Z,14.39
2022-10-11T06:38:34.080Z,14.54
2022-10-11T06:41:10.493Z,14.58
2022-10-11T06:43:39.133Z,14.48
2022-10-11T06:46:05.941Z,14.58
2022-10-11T06:48:32.699Z,14.62
2022-10-11T06:51:02.244Z,14.49
2022-10-11T06:53:28.705Z,14.55
2022-10-11T06:56:02.626Z,14.63
2022-10-11T06:58:29.534Z,14.64
2022-10-11T07:01:03.904Z,14.61
2022-10-11T07:03:30.698Z,14.57
2022-10-11T07:06:05.724Z,14.63
2022-10-11T07:08:32.674Z,14.52
2022-10-11T07:11:05.690Z,14.58
2022-10-11T07:13:34.789Z,14.55
2022-10-11T07:16:05.662Z,14.65
2022-10-11T07:18:32.490Z,14.63
2022-10-11T07:21:04.140Z,14.64
2022-10-11T07:23:30.691Z,14.77
2022-10-11T07:25:57.137Z,14.75
2022-10-11T07:28:30.590Z,14.74
2022-10-11T07:31:00.242Z,14.72
2022-10-11T07:33:26.736Z,14.75
2022-10-11T07:35:57.077Z,14.74
2022-10-11T07:38:23.525Z,14.73
2022-10-11T07:40:49.963Z,14.53
2022-10-11T07:43:16.451Z,14.62
2022-10-11T07:45:48.585Z,14.64
2022-10-11T07:48:15.429Z,14.45
2022-10-11T07:50:44.263Z,14.57
2022-10-11T07:53:11.092Z,14.55
2022-10-11T07:55:40.264Z,14.71
2022-10-11T07:58:09.096Z,14.91
2022-10-11T08:00:36.281Z,14.88
2022-10-11T08:03:06.729Z,15.00
2022-10-11T08:05:37.717Z,15.07
2022-10-11T08:08:04.290Z,14.92
2022-10-11T08:10:30.817Z,14.58
2022-10-11T08:13:01.904Z,14.91
2022-10-11T08:15:35.327Z,14.83
2022-10-11T08:18:04.277Z,15.09
2022-10-11T08:20:33.028Z,15.23
2022-10-11T08:23:03.977Z,15.03
2022-10-11T08:25:30.427Z,15.19
2022-10-11T08:27:56.958Z,15.44
2022-10-11T08:30:23.457Z,15.76
2022-10-11T08:32:49.977Z,15.84
2022-10-11T08:35:16.499Z,15.94
2022-10-11T08:37:42.995Z,16.14
2022-10-11T08:40:15.953Z,16.37
2022-10-11T08:42:46.241Z,16.65
2022-10-11T08:45:32.483Z,16.44
2022-10-11T08:48:29.999Z,17.03
2022-10-11T08:50:57.383Z,18.09
2022-10-11T08:53:46.413Z,18.17
2022-10-11T08:56:14.641Z,17.79
2022-10-11T08:58:50.044Z,20.02
2022-10-11T09:01:28.003Z,22.51
2022-10-11T09:04:00.043Z,22.02
2022-10-11T09:06:39.938Z,23.20
2022-10-11T09:09:30.980Z,25.33
2022-10-11T09:12:17.711Z,21.01
2022-10-11T09:15:15.346Z,20.05
2022-10-11T09:17:56.644Z,19.70
2022-10-11T09:20:35.378Z,19.08
2022-10-11T09:23:01.826Z,18.83
2022-10-11T09:25:44.254Z,18.04
2022-10-11T09:28:22.420Z,18.12
2022-10-11T09:30:53.369Z,18.84
2022-10-11T09:33:42.468Z,19.33
2022-10-11T09:36:50.966Z,18.95
2022-10-11T09:40:02.093Z,18.07
2022-10-11T09:42:28.539Z,18.76
2022-10-11T09:44:57.223Z,19.03
2022-10-11T09:47:28.578Z,19.45
2022-10-11T09:50:04.953Z,19.19
2022-10-11T09:52:33.747Z,19.24
2022-10-11T09:55:02.163Z,18.50
2022-10-11T09:57:38.454Z,17.94
2022-10-11T10:00:22.329Z,17.52
2022-10-11T10:02:54.410Z,17.98
2022-10-11T10:05:33.967Z,20.21
2022-10-11T10:08:05.461Z,20.25
2022-10-11T10:10:38.650Z,20.36
2022-10-11T10:13:15.764Z,19.52
2022-10-11T10:15:46.674Z,18.74
2022-10-11T10:18:23.686Z,18.33
2022-10-11T10:20:56.340Z,18.30
2022-10-11T10:23:36.321Z,17.30
2022-10-11T10:26:12.109Z,18.59
2022-10-11T10:28:39.269Z,18.81
2022-10-11T10:31:21.990Z,17.88
2022-10-11T10:33:52.278Z,17.93
2022-10-11T10:36:26.875Z,17.79
2022-10-11T10:39:05.802Z,18.31
2022-10-11T10:41:36.538Z,18.54
2022-10-11T10:44:04.120Z,18.35
2022-10-11T10:46:41.682Z,19.25
2022-10-11T10:49:54.432Z,18.95
2022-10-11T10:52:47.975Z,19.49
2022-10-11T10:55:23.669Z,19.72
2022-10-11T10:58:09.664Z,19.30
2022-10-11T11:01:01.361Z,18.87
2022-10-11T11:03:39.796Z,18.76
2022-10-11T11:06:10.139Z,18.94
2022-10-11T11:09:10.582Z,18.91
2022-10-11T11:11:52.806Z,18.78
2022-10-11T11:15:00.941Z,18.06
2022-10-11T11:17:48.928Z,18.55
2022-10-11T11:20:26.836Z,18.22
2022-10-11T11:23:08.439Z,18.69
2022-10-11T11:25:58.944Z,18.58
2022-10-11T11:28:40.463Z,19.13
2022-10-11T11:31:19.080Z,19.16
2022-10-11T11:34:16.346Z,18.96
2022-10-11T11:36:49.818Z,18.89
2022-10-11T11:39:24.246Z,18.98
2022-10-11T11:41:58.311Z,19.14
2022-10-11T11:44:28.165Z,19.06
2022-10-11T11:47:03.073Z,18.52
2022-10-11T11:49:41.305Z,18.62
2022-10-11T11:52:17.859Z,18.46
2022-10-11T11:54:47.051Z,18.59
2022-10-11T11:57:22.209Z,18.61
2022-10-11T12:00:01.930Z,18.49
2022-10-11T12:02:54.664Z,18.51
2022-10-11T12:05:24.584Z,18.48
2022-10-11T12:08:04.094Z,18.88
2022-10-11T12:10:32.790Z,19.24
2022-10-11T12:13:31.927Z,19.02
2022-10-11T12:16:12.828Z,19.49
2022-10-11T12:19:00.655Z,19.50
2022-10-11T12:21:36.252Z,19.05
2022-10-11T12:24:14.932Z,19.06
2022-10-11T12:26:46.553Z,19.08
2022-10-11T12:29:19.383Z,18.86
2022-10-11T12:31:49.814Z,18.91
2022-10-11T12:34:25.161Z,18.87
2022-10-11T12:36:51.670Z,18.69
2022-10-11T12:39:21.262Z,17.91
2022-10-11T12:41:47.704Z,18.03
2022-10-11T12:44:28.262Z,18.04
2022-10-11T12:46:54.669Z,17.60
2022-10-11T12:49:59.285Z,17.78
2022-10-11T12:52:37.221Z,17.98
2022-10-11T12:55:22.973Z,18.00
2022-10-11T12:58:17.685Z,17.81
2022-10-11T13:01:04.202Z,17.81
2022-10-11T13:03:42.091Z,17.99
2022-10-11T13:06:24.965Z,17.60
2022-10-11T13:08:55.009Z,17.79
2022-10-11T13:11:25.103Z,17.95
2022-10-11T13:14:05.310Z,18.15
2022-10-11T13:17:03.335Z,17.69
2022-10-11T13:19:31.948Z,17.93
2022-10-11T13:22:06.445Z,17.83
2022-10-11T13:24:39.512Z,17.63
2022-10-11T13:27:18.952Z,18.09
2022-10-11T13:29:46.292Z,18.22
2022-10-11T13:32:19.194Z,18.27
2022-10-11T13:34:49.193Z,18.24
2022-10-11T13:37:22.608Z,17.87
2022-10-11T13:39:51.960Z,17.78
2022-10-11T13:42:21.464Z,18.00
2022-10-11T13:44:48.130Z,18.15
2022-10-11T13:47:17.652Z,18.00
2022-10-11T13:49:47.578Z,17.93
2022-10-11T13:52:23.910Z,17.94
2022-10-11T13:54:55.051Z,18.03
2022-10-11T13:57:28.507Z,17.90
2022-10-11T13:59:55.037Z,17.95
2022-10-11T14:02:23.727Z,18.19
2022-10-11T14:04:50.372Z,18.33
2022-10-11T14:07:27.260Z,18.21
2022-10-11T14:09:55.717Z,18.12
2022-10-11T14:12:32.604Z,17.91
2022-10-11T14:15:37.998Z,18.14
2022-10-11T14:18:38.886Z,18.19
2022-10-11T14:21:46.488Z,18.14
2022-10-11T14:24:14.763Z,17.89
2022-10-11T14:26:44.006Z,17.67
2022-10-11T14:29:20.694Z,17.57
2022-10-11T14:31:47.454Z,18.05
2022-10-11T14:34:20.595Z,18.27
2022-10-11T14:36:49.045Z,17.96
2022-10-11T14:39:27.665Z,17.98
2022-10-11T14:41:54.782Z,18.12
2022-10-11T14:44:24.917Z,17.94
2022-10-11T14:46:54.585Z,17.80
2022-10-11T14:49:29.808Z,17.83
2022-10-11T14:51:58.003Z,17.82
2022-10-11T14:54:26.603Z,17.85
2022-10-11T14:56:55.730Z,17.84
2022-10-11T14:59:25.176Z,17.73
2022-10-11T15:01:54.024Z,17.66
2022-10-11T15:04:21.660Z,17.78
2022-10-11T15:06:49.032Z,17.58
2022-10-11T15:09:21.334Z,17.50
2022-10-11T15:11:51.789Z,17.64
2022-10-11T15:14:18.299Z,17.62
2022-10-11T15:16:44.748Z,17.52
2022-10-11T15:19:16.549Z,17.61
2022-10-11T15:21:43.130Z,17.37
2022-10-11T15:24:09.621Z,17.32
2022-10-11T15:26:36.169Z,17.45
2022-10-11T15:29:02.801Z,17.51
2022-10-11T15:31:29.237Z,17.45
2022-10-11T15:33:59.379Z,17.49
2022-10-11T15:36:26.183Z,17.48
2022-10-11T15:38:52.644Z,17.15
2022-10-11T15:41:21.433Z,17.23
2022-10-11T15:43:48.798Z,17.24
2022-10-11T15:46:18.827Z,17.24
2022-10-11T15:48:45.864Z,16.84
2022-10-11T15:51:12.979Z,17.00
2022-10-11T15:53:40.016Z,16.88
2022-10-11T15:56:15.070Z,17.04
2022-10-11T15:58:44.472Z,17.11
2022-10-11T16:01:17.445Z,17.06
2022-10-11T16:03:45.559Z,17.12
2022-10-11T16:06:13.073Z,17.13
2022-10-11T16:08:40.299Z,16.73
2022-10-11T16:11:08.164Z,16.80
2022-10-11T16:13:35.039Z,16.77
2022-10-11T16:16:08.075Z,16.84
2022-10-11T16:18:35.983Z,16.91
2022-10-11T16:21:09.658Z,16.96
2022-10-11T16:23:39.024Z,16.98
2022-10-11T16:26:09.397Z,16.66
2022-10-11T16:28:37.481Z,16.65
2022-10-11T16:31:16.658Z,16.63
2022-10-11T16:33:46.252Z,16.36
2022-10-11T16:36:32.587Z,16.12
2022-10-11T16:39:02.754Z,16.00
2022-10-11T16:41:29.205Z,16.14
2022-10-11T16:43:56.052Z,16.25
2022-10-11T16:46:22.623Z,16.18
2022-10-11T16:48:49.253Z,15.96
2022-10-11T16:51:15.906Z,15.94
2022-10-11T16:53:42.408Z,16.02
2022-10-11T16:56:10.184Z,16.10
2022-10-11T16:58:41.322Z,16.14
2022-10-11T17:01:10.397Z,16.04
2022-10-11T17:03:57.666Z,16.02
2022-10-11T17:06:44.867Z,15.77
2022-10-11T17:09:31.632Z,15.75
2022-10-11T17:12:22.037Z,15.82
2022-10-11T17:15:10.789Z,15.96
2022-10-11T17:17:57.988Z,15.93
2022-10-11T17:20:44.864Z,15.82
2022-10-11T17:23:34.099Z,15.72
2022-10-11T17:26:27.483Z,15.76
2022-10-11T17:29:16.883Z,15.71
2022-10-11T17:32:03.977Z,15.75
2022-10-11T17:34:50.904Z,15.72
2022-10-11T17:37:37.654Z,15.63
2022-10-11T17:40:24.436Z,15.55
2022-10-11T17:43:11.258Z,15.52
2022-10-11T17:46:02.026Z,15.66
2022-10-11T17:48:51.267Z,15.47
2022-10-11T17:51:40.090Z,15.44
2022-10-11T17:54:26.915Z,15.37
2022-10-11T17:57:13.675Z,15.31
2022-10-11T18:00:01.928Z,15.56
2022-10-11T18:02:51.469Z,15.36
2022-10-11T18:05:39.818Z,15.47
2022-10-11T18:08:26.562Z,15.42
2022-10-11T18:11:18.589Z,15.63
2022-10-11T18:14:05.661Z,15.50
2022-10-11T18:16:52.476Z,15.34
2022-10-11T18:19:39.256Z,15.56
2022-10-11T18:22:26.033Z,15.54
2022-10-11T18:25:12.831Z,15.47
2022-10-11T18:27:59.591Z,15.22
2022-10-11T18:30:47.442Z,15.45
2022-10-11T18:33:36.951Z,15.29
2022-10-11T18:36:26.979Z,15.22
2022-10-11T18:39:14.783Z,15.20
2022-10-11T18:42:04.466Z,15.17
2022-10-11T18:44:53.729Z,15.01
2022-10-11T18:47:40.504Z,14.73
2022-10-11T18:50:34.740Z,14.37
2022-10-11T18:53:21.496Z,14.64
2022-10-11T18:56:10.402Z,14.88
2022-10-11T18:58:58.137Z,14.73
2022-10-11T19:01:45.119Z,14.69
2022-10-11T19:04:34.174Z,14.88
2022-10-11T19:07:22.590Z,15.03
2022-10-11T19:10:09.464Z,15.14
2022-10-11T19:12:56.249Z,15.12
2022-10-11T19:15:43.024Z,15.24
2022-10-11T19:18:29.806Z,15.09
2022-10-11T19:21:16.851Z,15.22
2022-10-11T19:24:04.398Z,15.09
2022-10-11T19:26:53.029Z,15.08
2022-10-11T19:29:39.804Z,14.88
2022-10-11T19:32:26.578Z,14.80
2022-10-11T19:35:19.816Z,14.73
2022-10-11T19:38:06.883Z,14.56
2022-10-11T19:40:53.662Z,14.55
2022-10-11T19:43:40.559Z,14.62
2022-10-11T19:46:49.906Z,14.87
2022-10-11T19:49:34.887Z,14.86
2022-10-11T19:52:21.731Z,15.03
2022-10-11T19:55:09.121Z,15.18
2022-10-11T19:57:56.040Z,15.21
2022-10-11T20:00:42.842Z,15.24
2022-10-11T20:03:30.332Z,15.10
2022-10-11T20:06:19.652Z,15.18
2022-10-11T20:09:28.502Z,15.12
2022-10-11T20:12:14.520Z,15.05
2022-10-11T20:15:01.304Z,14.67
2022-10-11T20:17:51.594Z,14.75
2022-10-11T20:20:38.365Z,14.93
2022-10-11T20:23:27.770Z,15.03
2022-10-11T20:26:20.639Z,14.87
2022-10-11T20:29:09.712Z,14.89
2022-10-11T20:31:58.859Z,15.08
2022-10-11T20:34:45.663Z,14.92
2022-10-11T20:37:35.495Z,15.04
2022-10-11T20:40:22.244Z,14.79
2022-10-11T20:43:08.968Z,14.69
2022-10-11T20:46:26.746Z,14.75
2022-10-11T20:49:13.553Z,14.51
2022-10-11T20:52:00.363Z,14.28
2022-10-11T20:54:47.205Z,14.56
2022-10-11T20:57:34.234Z,14.66
2022-10-11T21:00:22.993Z,14.74
2022-10-11T21:03:10.395Z,14.47
2022-10-11T21:05:59.276Z,14.76
2022-10-11T21:08:46.075Z,14.81
2022-10-11T21:11:35.469Z,14.75
2022-10-11T21:14:22.263Z,14.66
2022-10-11T21:17:11.127Z,14.58
2022-10-11T21:20:00.706Z,14.38
2022-10-11T21:22:47.508Z,14.43
2022-10-11T21:25:37.586Z,14.44
2022-10-11T21:28:24.398Z,14.35
2022-10-11T21:31:13.968Z,13.95
2022-10-11T21:34:01.745Z,13.86
2022-10-11T21:36:48.646Z,14.00
2022-10-11T21:39:35.434Z,14.26
2022-10-11T21:42:25.901Z,14.32
2022-10-11T21:45:15.879Z,14.28
2022-10-11T21:48:02.640Z,14.18
2022-10-11T21:50:55.971Z,14.45
2022-10-11T21:53:42.759Z,14.52
2022-10-11T21:56:29.926Z,14.60
2022-10-11T21:59:16.808Z,14.53
2022-10-11T22:02:03.802Z,14.61
2022-10-11T22:04:50.677Z,14.34
2022-10-11T22:07:37.439Z,14.11
2022-10-11T22:10:24.220Z,13.93
2022-10-11T22:13:11.483Z,14.04
2022-10-11T22:16:02.083Z,13.96
2022-10-11T22:18:48.952Z,13.61
2022-10-11T22:21:35.872Z,13.63
2022-10-11T22:24:22.781Z,13.65
2022-10-11T22:27:14.452Z,13.44
2022-10-11T22:30:01.304Z,13.17
2022-10-11T22:32:50.070Z,13.16
2022-10-11T22:35:37.669Z,13.21
2022-10-11T22:38:28.047Z,13.32
2022-10-11T22:41:14.852Z,13.53
2022-10-11T22:44:02.007Z,13.59
2022-10-11T22:46:48.759Z,13.48
2022-10-11T22:49:35.531Z,13.45
2022-10-11T22:52:22.285Z,13.59
2022-10-11T22:55:09.261Z,13.55
2022-10-11T22:57:58.488Z,13.47
2022-10-11T23:00:45.427Z,13.65
2022-10-11T23:03:32.210Z,13.75
2022-10-11T23:06:21.412Z,13.75
2022-10-11T23:09:08.314Z,13.65
2022-10-11T23:11:55.633Z,13.87
2022-10-11T23:14:42.441Z,13.77
2022-10-11T23:17:29.216Z,13.54
2022-10-11T23:20:16.142Z,13.51
2022-10-11T23:23:03.012Z,13.39
2022-10-11T23:25:59.310Z,13.55
2022-10-11T23:28:46.276Z,13.49
2022-10-11T23:31:35.948Z,13.36
2022-10-11T23:34:22.784Z,13.35
2022-10-11T23:37:09.575Z,13.13
2022-10-11T23:39:58.750Z,13.12
2022-10-11T23:42:47.635Z,13.24
2022-10-11T23:45:34.379Z,13.47
2022-10-11T23:48:21.374Z,13.45
2022-10-11T23:51:08.430Z,13.31
2022-10-11T23:53:55.236Z,13.40
2022-10-11T23:56:42.003Z,13.45
2022-10-11T23:59:28.751Z,13.37
